sensor_id;sensor_type;location;lat;lon;timestamp;pressure;altitude;pressure_sealevel;temperature;humidity
78623;BME280;67943;54.412;9.502;2024-01-15T00:04:23;98819.94;;;2.30;94.27
78623;BME280;67943;54.412;9.502;2024-01-15T00:09:25;98826.63;;;2.40;94.18
78623;BME280;67943;54.412;9.502;2024-01-15T00:14:29;98806.13;;;2.29;95.14
78623;BME280;67943;54.412;9.502;2024-01-15T00:19:30;98801.56;;;2.39;95.46
78623;BME280;67943;54.412;9.502;2024-01-15T00:24:32;98786.75;;;2.44;94.64
78623;BME280;67943;54.412;9.502;2024-01-15T00:29:35;98779.41;;;2.64;93.54
78623;BME280;67943;54.412;9.502;2024-01-15T00:34:36;98782.03;;;2.63;92.35
78623;BME280;67943;54.412;9.502;2024-01-15T00:39:38;98781.72;;;2.77;91.59
78623;BME280;67943;54.412;9.502;2024-01-15T00:44:42;98787.56;;;2.88;89.83
78623;BME280;67943;54.412;9.502;2024-01-15T00:49:43;98775.19;;;2.97;88.06
78623;BME280;67943;54.412;9.502;2024-01-15T00:54:45;98783.13;;;2.91;85.56
78623;BME280;67943;54.412;9.502;2024-01-15T00:59:48;98787.38;;;2.94;84.50
78623;BME280;67943;54.412;9.502;2024-01-15T01:04:49;98790.94;;;2.90;82.76
78623;BME280;67943;54.412;9.502;2024-01-15T01:09:51;98784.00;;;2.90;81.73
78623;BME280;67943;54.412;9.502;2024-01-15T01:14:54;98782.50;;;2.82;80.79
78623;BME280;67943;54.412;9.502;2024-01-15T01:19:55;98772.44;;;2.66;80.24
78623;BME280;67943;54.412;9.502;2024-01-15T01:24:57;98782.69;;;2.72;79.86
78623;BME280;67943;54.412;9.502;2024-01-15T01:30:00;98772.09;;;2.82;77.68
78623;BME280;67943;54.412;9.502;2024-01-15T01:35:01;98773.94;;;2.77;76.70
78623;BME280;67943;54.412;9.502;2024-01-15T01:40:04;98772.19;;;2.77;75.41
78623;BME280;67943;54.412;9.502;2024-01-15T01:45:08;98768.06;;;2.68;75.78
78623;BME280;67943;54.412;9.502;2024-01-15T01:50:10;98768.75;;;2.77;75.52
78623;BME280;67943;54.412;9.502;2024-01-15T01:55:12;98764.44;;;2.76;75.67
78623;BME280;67943;54.412;9.502;2024-01-15T02:00:16;98772.22;;;2.76;76.61
78623;BME280;67943;54.412;9.502;2024-01-15T02:05:22;98762.34;;;2.91;77.38
78623;BME280;67943;54.412;9.502;2024-01-15T02:10:24;98779.53;;;2.97;77.85
78623;BME280;67943;54.412;9.502;2024-01-15T02:15:27;98783.16;;;2.90;79.33
78623;BME280;67943;54.412;9.502;2024-01-15T02:20:28;98769.50;;;2.82;81.51
78623;BME280;67943;54.412;9.502;2024-01-15T02:25:32;98756.97;;;2.60;83.25
78623;BME280;67943;54.412;9.502;2024-01-15T02:30:34;98768.63;;;2.43;83.46
78623;BME280;67943;54.412;9.502;2024-01-15T02:35:38;98768.63;;;2.43;82.14
78623;BME280;67943;54.412;9.502;2024-01-15T02:40:41;98786.59;;;2.53;80.96
78623;BME280;67943;54.412;9.502;2024-01-15T02:45:43;98771.13;;;2.47;82.26
78623;BME280;67943;54.412;9.502;2024-01-15T02:50:44;98775.53;;;2.44;85.04
78623;BME280;67943;54.412;9.502;2024-01-15T02:55:47;98781.81;;;2.32;86.12
78623;BME280;67943;54.412;9.502;2024-01-15T03:00:48;98798.34;;;2.29;86.68
78623;BME280;67943;54.412;9.502;2024-01-15T03:05:50;98794.88;;;2.29;85.33
78623;BME280;67943;54.412;9.502;2024-01-15T03:10:53;98798.56;;;2.17;86.01
78623;BME280;67943;54.412;9.502;2024-01-15T03:15:54;98795.22;;;2.11;86.14
78623;BME280;67943;54.412;9.502;2024-01-15T03:20:56;98806.34;;;2.17;85.24
78623;BME280;67943;54.412;9.502;2024-01-15T03:25:59;98809.88;;;2.13;83.18
78623;BME280;67943;54.412;9.502;2024-01-15T03:31:00;98797.53;;;2.26;81.49
78623;BME280;67943;54.412;9.502;2024-01-15T03:36:02;98800.16;;;2.24;80.12
78623;BME280;67943;54.412;9.502;2024-01-15T03:41:04;98810.56;;;2.23;79.14
78623;BME280;67943;54.412;9.502;2024-01-15T03:46:06;98808.03;;;2.20;78.54
78623;BME280;67943;54.412;9.502;2024-01-15T03:51:08;98814.84;;;2.25;78.09
78623;BME280;67943;54.412;9.502;2024-01-15T03:56:11;98813.09;;;2.26;77.28
78623;BME280;67943;54.412;9.502;2024-01-15T04:01:13;98809.34;;;2.39;77.08
78623;BME280;67943;54.412;9.502;2024-01-15T04:06:14;98821.66;;;2.31;77.26
78623;BME280;67943;54.412;9.502;2024-01-15T04:11:17;98814.75;;;2.30;76.63
78623;BME280;67943;54.412;9.502;2024-01-15T04:16:18;98830.03;;;2.44;75.71
78623;BME280;67943;54.412;9.502;2024-01-15T04:21:20;98842.88;;;2.50;74.99
78623;BME280;67943;54.412;9.502;2024-01-15T04:26:23;98850.81;;;2.42;75.16
78623;BME280;67943;54.412;9.502;2024-01-15T04:31:25;98850.72;;;2.47;75.20
78623;BME280;67943;54.412;9.502;2024-01-15T04:36:27;98849.75;;;2.52;74.73
78623;BME280;67943;54.412;9.502;2024-01-15T04:41:30;98849.53;;;2.63;74.39
78623;BME280;67943;54.412;9.502;2024-01-15T04:46:31;98857.53;;;2.54;75.19
78623;BME280;67943;54.412;9.502;2024-01-15T04:51:34;98857.56;;;2.52;75.11
78623;BME280;67943;54.412;9.502;2024-01-15T04:56:37;98849.00;;;2.47;75.44
78623;BME280;67943;54.412;9.502;2024-01-15T05:01:38;98863.75;;;2.44;75.78
78623;BME280;67943;54.412;9.502;2024-01-15T05:06:40;98868.06;;;2.45;76.18
78623;BME280;67943;54.412;9.502;2024-01-15T05:11:43;98868.91;;;2.47;76.17
78623;BME280;67943;54.412;9.502;2024-01-15T05:16:46;98863.94;;;2.34;76.20
78623;BME280;67943;54.412;9.502;2024-01-15T05:21:48;98862.25;;;2.32;76.40
78623;BME280;67943;54.412;9.502;2024-01-15T05:26:51;98864.94;;;2.29;76.39
78623;BME280;67943;54.412;9.502;2024-01-15T05:31:52;98871.03;;;2.26;76.71
78623;BME280;67943;54.412;9.502;2024-01-15T05:36:54;98884.94;;;2.22;76.58
78623;BME280;67943;54.412;9.502;2024-01-15T05:41:58;98875.44;;;2.23;76.58
78623;BME280;67943;54.412;9.502;2024-01-15T05:46:59;98877.13;;;2.24;76.48
78623;BME280;67943;54.412;9.502;2024-01-15T05:52:01;98885.00;;;2.19;76.64
78623;BME280;67943;54.412;9.502;2024-01-15T05:57:04;98879.91;;;2.15;77.20
78623;BME280;67943;54.412;9.502;2024-01-15T06:02:06;98892.91;;;2.12;77.68
78623;BME280;67943;54.412;9.502;2024-01-15T06:07:07;98889.44;;;2.13;77.84
78623;BME280;67943;54.412;9.502;2024-01-15T06:12:10;98889.34;;;2.19;77.86
78623;BME280;67943;54.412;9.502;2024-01-15T06:17:12;98893.69;;;2.17;77.89
78623;BME280;67943;54.412;9.502;2024-01-15T06:22:13;98896.34;;;2.14;77.87
78623;BME280;67943;54.412;9.502;2024-01-15T06:27:16;98901.63;;;2.08;77.53
78623;BME280;67943;54.412;9.502;2024-01-15T06:32:18;98895.78;;;1.96;77.60
78623;BME280;67943;54.412;9.502;2024-01-15T06:37:19;98906.16;;;1.96;78.07
78623;BME280;67943;54.412;9.502;2024-01-15T06:42:22;98915.81;;;1.88;77.86
78623;BME280;67943;54.412;9.502;2024-01-15T06:47:24;98915.75;;;1.91;77.54
78623;BME280;67943;54.412;9.502;2024-01-15T06:52:25;98916.75;;;1.83;77.49
78623;BME280;67943;54.412;9.502;2024-01-15T06:57:28;98923.72;;;1.79;77.28
78623;BME280;67943;54.412;9.502;2024-01-15T07:02:29;98928.19;;;1.71;76.95
78623;BME280;67943;54.412;9.502;2024-01-15T07:07:31;98938.78;;;1.56;77.37
78623;BME280;67943;54.412;9.502;2024-01-15T07:12:34;98944.94;;;1.49;78.33
78623;BME280;67943;54.412;9.502;2024-01-15T07:17:36;98947.63;;;1.43;78.71
78623;BME280;67943;54.412;9.502;2024-01-15T07:22:39;98937.16;;;1.49;78.67
78623;BME280;67943;54.412;9.502;2024-01-15T07:27:42;98941.53;;;1.45;78.83
78623;BME280;67943;54.412;9.502;2024-01-15T07:32:45;98957.94;;;1.46;79.08
78623;BME280;67943;54.412;9.502;2024-01-15T07:37:46;98962.22;;;1.48;79.10
78623;BME280;67943;54.412;9.502;2024-01-15T07:42:49;98982.09;;;1.48;78.72
78623;BME280;67943;54.412;9.502;2024-01-15T07:47:50;98987.31;;;1.45;78.90
78623;BME280;67943;54.412;9.502;2024-01-15T07:52:52;98996.81;;;1.46;78.52
78623;BME280;67943;54.412;9.502;2024-01-15T07:57:55;99008.03;;;1.45;78.35
78623;BME280;67943;54.412;9.502;2024-01-15T08:02:59;99034.75;;;1.51;78.13
78623;BME280;67943;54.412;9.502;2024-01-15T08:08:01;99030.44;;;1.49;78.20
78623;BME280;67943;54.412;9.502;2024-01-15T08:13:04;99055.47;;;1.51;77.53
78623;BME280;67943;54.412;9.502;2024-01-15T08:18:08;99057.16;;;1.54;76.67
78623;BME280;67943;54.412;9.502;2024-01-15T08:23:10;99067.47;;;1.60;75.14
78623;BME280;67943;54.412;9.502;2024-01-15T08:28:13;99075.19;;;1.63;75.53
78623;BME280;67943;54.412;9.502;2024-01-15T08:33:14;99077.75;;;1.67;74.82
78623;BME280;67943;54.412;9.502;2024-01-15T08:38:15;99084.59;;;1.72;74.48
78623;BME280;67943;54.412;9.502;2024-01-15T08:43:18;99088.84;;;1.74;73.69
78623;BME280;67943;54.412;9.502;2024-01-15T08:48:20;99095.00;;;1.70;73.17
78623;BME280;67943;54.412;9.502;2024-01-15T08:53:22;99100.13;;;1.73;72.54
78623;BME280;67943;54.412;9.502;2024-01-15T08:58:25;99112.25;;;1.73;71.58
78623;BME280;67943;54.412;9.502;2024-01-15T09:03:26;99113.94;;;1.74;70.08
78623;BME280;67943;54.412;9.502;2024-01-15T09:08:28;99124.28;;;1.75;69.32
78623;BME280;67943;54.412;9.502;2024-01-15T09:13:31;99126.97;;;1.71;68.48
78623;BME280;67943;54.412;9.502;2024-01-15T09:18:32;99134.56;;;1.81;67.59
78623;BME280;67943;54.412;9.502;2024-01-15T09:23:34;99140.50;;;1.92;67.42
78623;BME280;67943;54.412;9.502;2024-01-15T09:28:37;99155.13;;;1.98;67.14
78623;BME280;67943;54.412;9.502;2024-01-15T09:33:38;99154.94;;;2.10;66.75
78623;BME280;67943;54.412;9.502;2024-01-15T09:38:40;99156.63;;;2.13;66.08
78623;BME280;67943;54.412;9.502;2024-01-15T09:43:43;99159.09;;;2.22;65.92
78623;BME280;67943;54.412;9.502;2024-01-15T09:48:45;99170.38;;;2.19;65.59
78623;BME280;67943;54.412;9.502;2024-01-15T09:53:48;99165.88;;;2.32;64.78
78623;BME280;67943;54.412;9.502;2024-01-15T09:58:51;99163.97;;;2.43;64.32
78623;BME280;67943;54.412;9.502;2024-01-15T10:03:54;99157.13;;;2.39;63.72
78623;BME280;67943;54.412;9.502;2024-01-15T10:08:57;99163.84;;;2.52;63.11
78623;BME280;67943;54.412;9.502;2024-01-15T10:14:01;99179.34;;;2.58;63.83
78623;BME280;67943;54.412;9.502;2024-01-15T10:19:02;99174.88;;;2.65;63.32
78623;BME280;67943;54.412;9.502;2024-01-15T10:24:04;99193.00;;;2.68;63.45
78623;BME280;67943;54.412;9.502;2024-01-15T10:29:07;99193.03;;;2.66;63.13
78623;BME280;67943;54.412;9.502;2024-01-15T10:34:12;99199.13;;;2.64;63.00
78623;BME280;67943;54.412;9.502;2024-01-15T10:39:15;99210.25;;;2.74;62.77
78623;BME280;67943;54.412;9.502;2024-01-15T10:44:18;99218.44;;;3.03;62.79
78623;BME280;67943;54.412;9.502;2024-01-15T10:49:20;99227.13;;;3.50;61.19
78623;BME280;67943;54.412;9.502;2024-01-15T10:54:26;99232.03;;;3.66;59.27
78623;BME280;67943;54.412;9.502;2024-01-15T10:59:29;99238.75;;;3.78;59.53
78623;BME280;67943;54.412;9.502;2024-01-15T11:04:32;99241.44;;;4.58;57.66
78623;BME280;67943;54.412;9.502;2024-01-15T11:09:34;99248.88;;;6.98;52.98
78623;BME280;67943;54.412;9.502;2024-01-15T11:14:40;99241.84;;;8.02;49.36
78623;BME280;67943;54.412;9.502;2024-01-15T11:19:45;99234.59;;;9.01;45.49
78623;BME280;67943;54.412;9.502;2024-01-15T11:24:46;99242.16;;;9.91;43.26
78623;BME280;67943;54.412;9.502;2024-01-15T11:30:03;99242.78;;;11.98;39.32
78623;BME280;67943;54.412;9.502;2024-01-15T11:35:06;99248.81;;;12.66;36.65
78623;BME280;67943;54.412;9.502;2024-01-15T11:40:09;99250.09;;;12.42;37.08
78623;BME280;67943;54.412;9.502;2024-01-15T11:45:13;99243.09;;;12.58;36.50
78623;BME280;67943;54.412;9.502;2024-01-15T11:50:15;99246.59;;;13.22;34.95
78623;BME280;67943;54.412;9.502;2024-01-15T11:55:19;99251.66;;;11.80;37.04
78623;BME280;67943;54.412;9.502;2024-01-15T12:00:24;99241.47;;;12.56;36.51
78623;BME280;67943;54.412;9.502;2024-01-15T12:05:26;99243.59;;;14.87;32.91
78623;BME280;67943;54.412;9.502;2024-01-15T12:10:27;99241.81;;;16.57;30.53
78623;BME280;67943;54.412;9.502;2024-01-15T12:15:31;99243.19;;;17.12;29.31
78623;BME280;67943;54.412;9.502;2024-01-15T12:20:33;99246.31;;;15.93;29.45
78623;BME280;67943;54.412;9.502;2024-01-15T12:25:35;99253.25;;;15.56;30.24
78623;BME280;67943;54.412;9.502;2024-01-15T12:30:39;99244.38;;;15.95;29.68
78623;BME280;67943;54.412;9.502;2024-01-15T12:35:40;99248.88;;;16.33;29.18
78623;BME280;67943;54.412;9.502;2024-01-15T12:40:43;99241.00;;;17.30;27.36
78623;BME280;67943;54.412;9.502;2024-01-15T12:45:47;99257.44;;;17.59;27.37
78623;BME280;67943;54.412;9.502;2024-01-15T12:50:51;99272.63;;;18.04;26.67
78623;BME280;67943;54.412;9.502;2024-01-15T12:55:53;99262.31;;;18.68;26.14
78623;BME280;67943;54.412;9.502;2024-01-15T13:00:56;99276.56;;;18.56;25.30
78623;BME280;67943;54.412;9.502;2024-01-15T13:05:58;99277.41;;;18.56;25.44
78623;BME280;67943;54.412;9.502;2024-01-15T13:10:59;99277.75;;;19.08;24.85
78623;BME280;67943;54.412;9.502;2024-01-15T13:16:02;99283.09;;;19.08;24.77
78623;BME280;67943;54.412;9.502;2024-01-15T13:21:04;99285.50;;;18.55;25.15
78623;BME280;67943;54.412;9.502;2024-01-15T13:26:06;99286.69;;;18.17;25.54
78623;BME280;67943;54.412;9.502;2024-01-15T13:31:09;99286.88;;;17.68;26.04
78623;BME280;67943;54.412;9.502;2024-01-15T13:36:10;99286.09;;;17.55;26.03
78623;BME280;67943;54.412;9.502;2024-01-15T13:41:12;99303.63;;;16.21;27.87
78623;BME280;67943;54.412;9.502;2024-01-15T13:46:15;99297.81;;;14.81;29.85
78623;BME280;67943;54.412;9.502;2024-01-15T13:51:17;99304.59;;;13.84;30.92
78623;BME280;67943;54.412;9.502;2024-01-15T13:56:19;99316.22;;;11.70;33.71
78623;BME280;67943;54.412;9.502;2024-01-15T14:01:22;99325.19;;;9.95;36.44
78623;BME280;67943;54.412;9.502;2024-01-15T14:06:24;99324.72;;;8.76;38.28
78623;BME280;67943;54.412;9.502;2024-01-15T14:11:25;99338.16;;;7.94;40.57
78623;BME280;67943;54.412;9.502;2024-01-15T14:16:28;99345.81;;;7.74;41.25
78623;BME280;67943;54.412;9.502;2024-01-15T14:21:29;99345.59;;;7.54;42.22
78623;BME280;67943;54.412;9.502;2024-01-15T14:26:32;99368.25;;;6.99;43.29
78623;BME280;67943;54.412;9.502;2024-01-15T14:31:34;99372.47;;;6.42;44.74
78623;BME280;67943;54.412;9.502;2024-01-15T14:36:37;99372.38;;;5.79;46.45
78623;BME280;67943;54.412;9.502;2024-01-15T14:41:38;99377.91;;;5.30;47.49
78623;BME280;67943;54.412;9.502;2024-01-15T14:46:41;99376.09;;;4.95;49.31
78623;BME280;67943;54.412;9.502;2024-01-15T14:51:43;99390.56;;;4.68;49.21
78623;BME280;67943;54.412;9.502;2024-01-15T14:56:44;99399.09;;;4.31;50.46
78623;BME280;67943;54.412;9.502;2024-01-15T15:01:47;99401.44;;;3.99;51.77
78623;BME280;67943;54.412;9.502;2024-01-15T15:06:49;99401.97;;;3.67;52.67
78623;BME280;67943;54.412;9.502;2024-01-15T15:11:51;99403.16;;;3.46;54.44
78623;BME280;67943;54.412;9.502;2024-01-15T15:16:54;99419.13;;;3.19;54.96
78623;BME280;67943;54.412;9.502;2024-01-15T15:21:55;99422.84;;;3.01;56.33
78623;BME280;67943;54.412;9.502;2024-01-15T15:26:58;99424.69;;;2.93;57.13
78623;BME280;67943;54.412;9.502;2024-01-15T15:32:02;99438.69;;;2.83;57.89
78623;BME280;67943;54.412;9.502;2024-01-15T15:37:09;99421.44;;;2.76;58.99
78623;BME280;67943;54.412;9.502;2024-01-15T15:42:10;99430.00;;;2.84;59.24
78623;BME280;67943;54.412;9.502;2024-01-15T15:47:15;99431.75;;;2.82;59.06
78623;BME280;67943;54.412;9.502;2024-01-15T15:52:16;99442.19;;;2.79;58.39
78623;BME280;67943;54.412;9.502;2024-01-15T15:57:31;99454.44;;;2.64;58.66
78623;BME280;67943;54.412;9.502;2024-01-15T16:02:35;99463.31;;;2.45;60.25
78623;BME280;67943;54.412;9.502;2024-01-15T16:07:36;99475.47;;;2.43;60.54
78623;BME280;67943;54.412;9.502;2024-01-15T16:12:38;99486.66;;;2.47;60.42
78623;BME280;67943;54.412;9.502;2024-01-15T16:17:41;99504.16;;;2.29;61.84
78623;BME280;67943;54.412;9.502;2024-01-15T16:22:42;99515.50;;;2.15;63.13
78623;BME280;67943;54.412;9.502;2024-01-15T16:27:44;99524.97;;;2.20;64.27
78623;BME280;67943;54.412;9.502;2024-01-15T16:32:47;99531.84;;;2.27;65.84
78623;BME280;67943;54.412;9.502;2024-01-15T16:37:49;99527.44;;;2.32;67.17
78623;BME280;67943;54.412;9.502;2024-01-15T16:42:50;99531.72;;;2.41;68.77
78623;BME280;67943;54.412;9.502;2024-01-15T16:47:53;99525.63;;;2.44;69.61
78623;BME280;67943;54.412;9.502;2024-01-15T16:52:55;99537.88;;;2.31;68.91
78623;BME280;67943;54.412;9.502;2024-01-15T16:57:56;99552.72;;;2.09;69.76
78623;BME280;67943;54.412;9.502;2024-01-15T17:02:59;99559.63;;;2.13;71.07
78623;BME280;67943;54.412;9.502;2024-01-15T17:08:01;99533.66;;;2.15;71.48
78623;BME280;67943;54.412;9.502;2024-01-15T17:13:03;99544.06;;;2.13;71.48
78623;BME280;67943;54.412;9.502;2024-01-15T17:18:06;99560.53;;;2.04;72.10
78623;BME280;67943;54.412;9.502;2024-01-15T17:23:08;99563.22;;;1.95;72.28
78623;BME280;67943;54.412;9.502;2024-01-15T17:28:09;99566.75;;;1.84;72.66
78623;BME280;67943;54.412;9.502;2024-01-15T17:33:12;99579.75;;;1.76;73.57
78623;BME280;67943;54.412;9.502;2024-01-15T17:38:14;99578.09;;;1.67;73.76
78623;BME280;67943;54.412;9.502;2024-01-15T17:43:16;99589.34;;;1.59;73.69
78623;BME280;67943;54.412;9.502;2024-01-15T17:48:19;99612.69;;;1.53;73.92
78623;BME280;67943;54.412;9.502;2024-01-15T17:53:21;99613.56;;;1.49;73.79
78623;BME280;67943;54.412;9.502;2024-01-15T17:58:22;99610.13;;;1.48;73.94
78623;BME280;67943;54.412;9.502;2024-01-15T18:03:25;99630.06;;;1.29;74.33
78623;BME280;67943;54.412;9.502;2024-01-15T18:08:26;99622.31;;;1.17;74.49
78623;BME280;67943;54.412;9.502;2024-01-15T18:13:30;99629.28;;;1.01;75.21
78623;BME280;67943;54.412;9.502;2024-01-15T18:18:33;99622.38;;;0.90;75.56
78623;BME280;67943;54.412;9.502;2024-01-15T18:23:35;99620.69;;;0.81;76.49
78623;BME280;67943;54.412;9.502;2024-01-15T18:28:37;99631.03;;;0.63;77.53
78623;BME280;67943;54.412;9.502;2024-01-15T18:33:40;99644.84;;;0.41;78.61
78623;BME280;67943;54.412;9.502;2024-01-15T18:38:41;99662.06;;;0.34;79.37
78623;BME280;67943;54.412;9.502;2024-01-15T18:43:43;99670.69;;;0.31;80.17
78623;BME280;67943;54.412;9.502;2024-01-15T18:48:46;99672.44;;;0.39;80.08
78623;BME280;67943;54.412;9.502;2024-01-15T18:53:47;99668.97;;;0.37;80.02
78623;BME280;67943;54.412;9.502;2024-01-15T18:58:49;99697.41;;;0.29;79.94
78623;BME280;67943;54.412;9.502;2024-01-15T19:03:52;99709.50;;;0.33;80.32
78623;BME280;67943;54.412;9.502;2024-01-15T19:08:54;99706.91;;;0.38;79.77
78623;BME280;67943;54.412;9.502;2024-01-15T19:13:55;99734.50;;;0.36;79.56
78623;BME280;67943;54.412;9.502;2024-01-15T19:18:58;99728.47;;;0.32;78.94
78623;BME280;67943;54.412;9.502;2024-01-15T19:24:00;99721.56;;;0.19;79.03
78623;BME280;67943;54.412;9.502;2024-01-15T19:29:02;99693.91;;;0.06;78.84
78623;BME280;67943;54.412;9.502;2024-01-15T19:34:09;99703.38;;;-0.04;78.89
78623;BME280;67943;54.412;9.502;2024-01-15T19:39:11;99742.09;;;-0.15;79.08
78623;BME280;67943;54.412;9.502;2024-01-15T19:44:12;99752.38;;;-0.27;79.39
78623;BME280;67943;54.412;9.502;2024-01-15T19:49:15;99749.75;;;-0.36;79.27
78623;BME280;67943;54.412;9.502;2024-01-15T19:54:17;99775.53;;;-0.44;79.50
78623;BME280;67943;54.412;9.502;2024-01-15T19:59:19;99772.03;;;-0.52;79.62
78623;BME280;67943;54.412;9.502;2024-01-15T20:04:22;99795.25;;;-0.59;78.84
78623;BME280;67943;54.412;9.502;2024-01-15T20:09:24;99808.97;;;-0.68;78.64
78623;BME280;67943;54.412;9.502;2024-01-15T20:14:25;99812.38;;;-0.72;78.50
78623;BME280;67943;54.412;9.502;2024-01-15T20:19:30;99809.66;;;-0.86;78.81
78623;BME280;67943;54.412;9.502;2024-01-15T20:24:31;99816.47;;;-0.97;78.18
78623;BME280;67943;54.412;9.502;2024-01-15T20:29:33;99830.00;;;-1.21;77.21
78623;BME280;67943;54.412;9.502;2024-01-15T20:34:39;99826.38;;;-1.37;76.17
78623;BME280;67943;54.412;9.502;2024-01-15T20:39:41;99840.03;;;-1.50;75.91
78623;BME280;67943;54.412;9.502;2024-01-15T20:44:43;99859.59;;;-1.64;76.51
78623;BME280;67943;54.412;9.502;2024-01-15T20:49:46;99864.53;;;-1.82;75.98
78623;BME280;67943;54.412;9.502;2024-01-15T20:54:48;99871.25;;;-1.93;75.69
78623;BME280;67943;54.412;9.502;2024-01-15T20:59:50;99875.44;;;-2.01;76.47
78623;BME280;67943;54.412;9.502;2024-01-15T21:04:58;99872.00;;;-2.00;77.23
78623;BME280;67943;54.412;9.502;2024-01-15T21:10:00;99888.22;;;-2.11;76.17
78623;BME280;67943;54.412;9.502;2024-01-15T21:15:01;99887.13;;;-2.25;75.43
78623;BME280;67943;54.412;9.502;2024-01-15T21:20:05;99882.63;;;-2.38;75.42
78623;BME280;67943;54.412;9.502;2024-01-15T21:25:08;99887.63;;;-2.47;75.60
78623;BME280;67943;54.412;9.502;2024-01-15T21:30:11;99907.19;;;-2.60;76.88
78623;BME280;67943;54.412;9.502;2024-01-15T21:35:16;99909.88;;;-2.52;78.41
78623;BME280;67943;54.412;9.502;2024-01-15T21:40:18;99925.53;;;-2.40;77.77
78623;BME280;67943;54.412;9.502;2024-01-15T21:45:19;99925.41;;;-2.48;77.77
78623;BME280;67943;54.412;9.502;2024-01-15T21:50:22;99930.53;;;-2.49;76.94
78623;BME280;67943;54.412;9.502;2024-01-15T21:55:24;99927.78;;;-2.60;76.79
78623;BME280;67943;54.412;9.502;2024-01-15T22:00:25;99933.53;;;-2.73;77.00
78623;BME280;67943;54.412;9.502;2024-01-15T22:05:29;99938.66;;;-2.75;77.34
78623;BME280;67943;54.412;9.502;2024-01-15T22:10:30;99951.31;;;-2.85;77.00
78623;BME280;67943;54.412;9.502;2024-01-15T22:15:32;99963.97;;;-2.99;76.99
78623;BME280;67943;54.412;9.502;2024-01-15T22:20:34;99987.69;;;-3.12;76.91
78623;BME280;67943;54.412;9.502;2024-01-15T22:25:36;99984.22;;;-3.14;78.42
78623;BME280;67943;54.412;9.502;2024-01-15T22:30:37;99997.13;;;-3.13;78.65
78623;BME280;67943;54.412;9.502;2024-01-15T22:35:41;99999.66;;;-3.14;78.63
78623;BME280;67943;54.412;9.502;2024-01-15T22:40:42;100014.16;;;-3.19;79.23
78623;BME280;67943;54.412;9.502;2024-01-15T22:45:44;100010.84;;;-3.12;79.09
78623;BME280;67943;54.412;9.502;2024-01-15T22:50:47;100010.84;;;-3.12;79.03
78623;BME280;67943;54.412;9.502;2024-01-15T22:55:49;100019.47;;;-3.10;78.59
78623;BME280;67943;54.412;9.502;2024-01-15T23:00:52;100026.19;;;-3.18;77.90
78623;BME280;67943;54.412;9.502;2024-01-15T23:05:54;100034.59;;;-3.25;78.23
78623;BME280;67943;54.412;9.502;2024-01-15T23:10:56;100053.47;;;-3.25;78.94
78623;BME280;67943;54.412;9.502;2024-01-15T23:15:57;100058.84;;;-3.14;79.06
78623;BME280;67943;54.412;9.502;2024-01-15T23:21:00;100053.00;;;-3.07;79.12
78623;BME280;67943;54.412;9.502;2024-01-15T23:26:02;100065.16;;;-3.00;79.20
78623;BME280;67943;54.412;9.502;2024-01-15T23:31:03;100061.88;;;-2.93;78.73
78623;BME280;67943;54.412;9.502;2024-01-15T23:36:07;100067.88;;;-2.94;78.21
78623;BME280;67943;54.412;9.502;2024-01-15T23:41:17;100067.09;;;-2.90;78.90
78623;BME280;67943;54.412;9.502;2024-01-15T23:46:18;100070.66;;;-2.82;78.47
78623;BME280;67943;54.412;9.502;2024-01-15T23:51:23;100080.91;;;-2.85;79.23
78623;BME280;67943;54.412;9.502;2024-01-15T23:56:25;100073.06;;;-2.91;80.27
